sensor_id;sensor_type;location;lat;lon;timestamp;P1;durP1;ratioP1;P2;durP2;ratioP2
19830;SDS011;10076;52.008;4.708;2023-03-12T00:01:22;6.73;;;4.10;;
19830;SDS011;10076;52.008;4.708;2023-03-12T00:03:48;8.90;;;3.67;;
19830;SDS011;10076;52.008;4.708;2023-03-12T00:06:15;9.97;;;3.80;;
19830;SDS011;10076;52.008;4.708;2023-03-12T00:08:41;4.73;;;2.87;;
19830;SDS011;10076;52.008;4.708;2023-03-12T00:11:08;9.63;;;3.63;;
19830;SDS011;10076;52.008;4.708;2023-03-12T00:13:36;9.23;;;2.70;;
19830;SDS011;10076;52.008;4.708;2023-03-12T00:16:12;4.53;;;2.80;;
19830;SDS011;10076;52.008;4.708;2023-03-12T00:18:39;6.20;;;3.03;;
19830;SDS011;10076;52.008;4.708;2023-03-12T00:21:05;4.73;;;2.83;;
19830;SDS011;10076;52.008;4.708;2023-03-12T00:23:31;5.80;;;3.50;;
19830;SDS011;10076;52.008;4.708;2023-03-12T00:26:04;6.53;;;3.00;;
19830;SDS011;10076;52.008;4.708;2023-03-12T00:28:31;4.47;;;2.90;;
19830;SDS011;10076;52.008;4.708;2023-03-12T00:30:57;6.77;;;2.83;;
19830;SDS011;10076;52.008;4.708;2023-03-12T00:33:23;4.10;;;2.70;;
19830;SDS011;10076;52.008;4.708;2023-03-12T00:35:50;4.40;;;2.67;;
19830;SDS011;10076;52.008;4.708;2023-03-12T00:38:16;4.60;;;2.60;;
19830;SDS011;10076;52.008;4.708;2023-03-12T00:40:41;6.20;;;3.00;;
19830;SDS011;10076;52.008;4.708;2023-03-12T00:43:06;4.23;;;3.00;;
19830;SDS011;10076;52.008;4.708;2023-03-12T00:45:32;6.43;;;2.90;;
19830;SDS011;10076;52.008;4.708;2023-03-12T00:47:57;5.97;;;2.67;;
19830;SDS011;10076;52.008;4.708;2023-03-12T00:50:22;4.10;;;2.80;;
19830;SDS011;10076;52.008;4.708;2023-03-12T00:52:47;3.93;;;2.70;;
19830;SDS011;10076;52.008;4.708;2023-03-12T00:55:13;3.80;;;2.47;;
19830;SDS011;10076;52.008;4.708;2023-03-12T00:57:38;4.77;;;2.97;;
19830;SDS011;10076;52.008;4.708;2023-03-12T01:00:04;3.43;;;2.37;;
19830;SDS011;10076;52.008;4.708;2023-03-12T01:02:36;6.33;;;2.73;;
19830;SDS011;10076;52.008;4.708;2023-03-12T01:05:03;3.20;;;2.30;;
19830;SDS011;10076;52.008;4.708;2023-03-12T01:07:30;3.03;;;2.30;;
19830;SDS011;10076;52.008;4.708;2023-03-12T01:09:55;5.43;;;2.30;;
19830;SDS011;10076;52.008;4.708;2023-03-12T01:12:20;6.30;;;3.27;;
19830;SDS011;10076;52.008;4.708;2023-03-12T01:14:45;5.27;;;2.70;;
19830;SDS011;10076;52.008;4.708;2023-03-12T01:17:11;5.53;;;2.10;;
19830;SDS011;10076;52.008;4.708;2023-03-12T01:19:36;2.37;;;2.17;;
19830;SDS011;10076;52.008;4.708;2023-03-12T01:22:02;7.87;;;2.40;;
19830;SDS011;10076;52.008;4.708;2023-03-12T01:24:27;5.13;;;2.47;;
19830;SDS011;10076;52.008;4.708;2023-03-12T01:26:52;2.77;;;2.30;;
19830;SDS011;10076;52.008;4.708;2023-03-12T01:29:18;5.03;;;2.53;;
19830;SDS011;10076;52.008;4.708;2023-03-12T01:31:43;4.43;;;2.73;;
19830;SDS011;10076;52.008;4.708;2023-03-12T01:34:09;7.07;;;2.83;;
19830;SDS011;10076;52.008;4.708;2023-03-12T01:36:35;5.67;;;2.27;;
19830;SDS011;10076;52.008;4.708;2023-03-12T01:39:01;6.43;;;2.50;;
19830;SDS011;10076;52.008;4.708;2023-03-12T01:41:27;4.80;;;2.27;;
19830;SDS011;10076;52.008;4.708;2023-03-12T01:43:56;4.77;;;2.30;;
19830;SDS011;10076;52.008;4.708;2023-03-12T01:46:23;5.87;;;2.53;;
19830;SDS011;10076;52.008;4.708;2023-03-12T01:49:08;3.13;;;2.30;;
19830;SDS011;10076;52.008;4.708;2023-03-12T01:51:51;7.73;;;2.40;;
19830;SDS011;10076;52.008;4.708;2023-03-12T01:54:22;4.30;;;2.43;;
19830;SDS011;10076;52.008;4.708;2023-03-12T01:56:54;3.20;;;2.03;;
19830;SDS011;10076;52.008;4.708;2023-03-12T02:00:05;5.93;;;2.23;;
19830;SDS011;10076;52.008;4.708;2023-03-12T02:02:11;2.73;;;2.10;;
19830;SDS011;10076;52.008;4.708;2023-03-12T02:04:38;5.33;;;2.23;;
19830;SDS011;10076;52.008;4.708;2023-03-12T02:07:09;2.57;;;2.17;;
19830;SDS011;10076;52.008;4.708;2023-03-12T02:09:37;3.93;;;2.80;;
19830;SDS011;10076;52.008;4.708;2023-03-12T02:12:07;2.40;;;1.90;;
19830;SDS011;10076;52.008;4.708;2023-03-12T02:14:33;4.23;;;2.13;;
19830;SDS011;10076;52.008;4.708;2023-03-12T02:16:59;4.63;;;2.10;;
19830;SDS011;10076;52.008;4.708;2023-03-12T02:22:19;3.60;;;2.27;;
19830;SDS011;10076;52.008;4.708;2023-03-12T02:27:33;4.93;;;2.47;;
19830;SDS011;10076;52.008;4.708;2023-03-12T02:30:01;3.77;;;1.90;;
19830;SDS011;10076;52.008;4.708;2023-03-12T02:32:31;3.60;;;2.20;;
19830;SDS011;10076;52.008;4.708;2023-03-12T02:35:00;2.80;;;1.87;;
19830;SDS011;10076;52.008;4.708;2023-03-12T02:37:27;4.17;;;1.83;;
19830;SDS011;10076;52.008;4.708;2023-03-12T02:40:26;3.23;;;1.80;;
19830;SDS011;10076;52.008;4.708;2023-03-12T02:42:55;4.93;;;2.70;;
19830;SDS011;10076;52.008;4.708;2023-03-12T02:45:21;2.37;;;1.80;;
19830;SDS011;10076;52.008;4.708;2023-03-12T02:47:48;2.70;;;2.03;;
19830;SDS011;10076;52.008;4.708;2023-03-12T02:50:13;3.13;;;2.10;;
19830;SDS011;10076;52.008;4.708;2023-03-12T02:52:39;2.27;;;1.63;;
19830;SDS011;10076;52.008;4.708;2023-03-12T02:55:05;5.43;;;2.13;;
19830;SDS011;10076;52.008;4.708;2023-03-12T02:57:34;2.40;;;1.80;;
19830;SDS011;10076;52.008;4.708;2023-03-12T03:00:03;3.80;;;2.40;;
19830;SDS011;10076;52.008;4.708;2023-03-12T03:02:30;3.13;;;1.93;;
19830;SDS011;10076;52.008;4.708;2023-03-12T03:04:56;2.53;;;1.83;;
19830;SDS011;10076;52.008;4.708;2023-03-12T03:07:21;2.27;;;1.57;;
19830;SDS011;10076;52.008;4.708;2023-03-12T03:09:47;3.03;;;1.87;;
19830;SDS011;10076;52.008;4.708;2023-03-12T03:12:12;6.27;;;2.33;;
19830;SDS011;10076;52.008;4.708;2023-03-12T03:14:37;1.80;;;1.53;;
19830;SDS011;10076;52.008;4.708;2023-03-12T03:17:02;4.70;;;2.47;;
19830;SDS011;10076;52.008;4.708;2023-03-12T03:19:28;2.93;;;1.80;;
19830;SDS011;10076;52.008;4.708;2023-03-12T03:21:53;3.17;;;1.77;;
19830;SDS011;10076;52.008;4.708;2023-03-12T03:24:19;3.10;;;1.90;;
19830;SDS011;10076;52.008;4.708;2023-03-12T03:26:44;8.10;;;2.07;;
19830;SDS011;10076;52.008;4.708;2023-03-12T03:29:10;2.90;;;1.30;;
19830;SDS011;10076;52.008;4.708;2023-03-12T03:31:35;2.30;;;1.40;;
19830;SDS011;10076;52.008;4.708;2023-03-12T03:34:01;3.83;;;1.90;;
19830;SDS011;10076;52.008;4.708;2023-03-12T03:36:26;3.50;;;1.63;;
19830;SDS011;10076;52.008;4.708;2023-03-12T03:38:51;4.23;;;2.67;;
19830;SDS011;10076;52.008;4.708;2023-03-12T03:41:17;4.00;;;1.90;;
19830;SDS011;10076;52.008;4.708;2023-03-12T03:43:44;2.80;;;1.70;;
19830;SDS011;10076;52.008;4.708;2023-03-12T03:46:10;5.40;;;2.00;;
19830;SDS011;10076;52.008;4.708;2023-03-12T03:48:37;2.67;;;1.67;;
19830;SDS011;10076;52.008;4.708;2023-03-12T03:51:03;5.30;;;2.47;;
19830;SDS011;10076;52.008;4.708;2023-03-12T03:53:30;2.00;;;1.60;;
19830;SDS011;10076;52.008;4.708;2023-03-12T03:55:56;2.50;;;1.90;;
19830;SDS011;10076;52.008;4.708;2023-03-12T03:58:21;2.53;;;1.90;;
19830;SDS011;10076;52.008;4.708;2023-03-12T04:00:47;3.40;;;1.90;;
19830;SDS011;10076;52.008;4.708;2023-03-12T04:03:12;3.13;;;2.03;;
19830;SDS011;10076;52.008;4.708;2023-03-12T04:05:38;2.27;;;1.90;;
19830;SDS011;10076;52.008;4.708;2023-03-12T04:08:04;4.33;;;2.07;;
19830;SDS011;10076;52.008;4.708;2023-03-12T04:10:30;2.83;;;2.00;;
19830;SDS011;10076;52.008;4.708;2023-03-12T04:12:55;3.93;;;2.60;;
19830;SDS011;10076;52.008;4.708;2023-03-12T04:15:21;3.43;;;1.97;;
19830;SDS011;10076;52.008;4.708;2023-03-12T04:17:46;3.30;;;1.80;;
19830;SDS011;10076;52.008;4.708;2023-03-12T04:20:12;3.10;;;1.87;;
19830;SDS011;10076;52.008;4.708;2023-03-12T04:22:37;4.77;;;1.73;;
19830;SDS011;10076;52.008;4.708;2023-03-12T04:25:03;2.27;;;1.73;;
19830;SDS011;10076;52.008;4.708;2023-03-12T04:27:29;8.37;;;1.97;;
19830;SDS011;10076;52.008;4.708;2023-03-12T04:29:54;2.70;;;1.70;;
19830;SDS011;10076;52.008;4.708;2023-03-12T04:32:20;2.80;;;2.23;;
19830;SDS011;10076;52.008;4.708;2023-03-12T04:34:45;3.43;;;2.03;;
19830;SDS011;10076;52.008;4.708;2023-03-12T04:37:11;2.97;;;1.87;;
19830;SDS011;10076;52.008;4.708;2023-03-12T04:39:39;4.47;;;2.07;;
19830;SDS011;10076;52.008;4.708;2023-03-12T04:42:05;5.50;;;2.00;;
19830;SDS011;10076;52.008;4.708;2023-03-12T04:44:32;2.40;;;1.77;;
19830;SDS011;10076;52.008;4.708;2023-03-12T04:46:57;5.23;;;1.93;;
19830;SDS011;10076;52.008;4.708;2023-03-12T04:49:23;1.83;;;1.73;;
19830;SDS011;10076;52.008;4.708;2023-03-12T04:51:48;1.93;;;1.73;;
19830;SDS011;10076;52.008;4.708;2023-03-12T04:54:13;8.30;;;2.00;;
19830;SDS011;10076;52.008;4.708;2023-03-12T04:56:39;3.67;;;2.63;;
19830;SDS011;10076;52.008;4.708;2023-03-12T04:59:04;5.43;;;2.20;;
19830;SDS011;10076;52.008;4.708;2023-03-12T05:01:31;2.03;;;1.90;;
19830;SDS011;10076;52.008;4.708;2023-03-12T05:03:57;3.60;;;1.97;;
19830;SDS011;10076;52.008;4.708;2023-03-12T05:06:23;10.93;;;2.40;;
19830;SDS011;10076;52.008;4.708;2023-03-12T05:08:49;5.80;;;2.10;;
19830;SDS011;10076;52.008;4.708;2023-03-12T05:11:16;3.80;;;2.00;;
19830;SDS011;10076;52.008;4.708;2023-03-12T05:13:42;6.00;;;2.40;;
19830;SDS011;10076;52.008;4.708;2023-03-12T05:16:08;3.07;;;2.43;;
19830;SDS011;10076;52.008;4.708;2023-03-12T05:18:34;6.27;;;3.20;;
19830;SDS011;10076;52.008;4.708;2023-03-12T05:21:01;3.93;;;1.73;;
19830;SDS011;10076;52.008;4.708;2023-03-12T05:23:28;14.23;;;3.17;;
19830;SDS011;10076;52.008;4.708;2023-03-12T05:25:54;2.47;;;1.90;;
19830;SDS011;10076;52.008;4.708;2023-03-12T05:28:20;4.47;;;2.57;;
19830;SDS011;10076;52.008;4.708;2023-03-12T05:30:51;6.30;;;2.70;;
19830;SDS011;10076;52.008;4.708;2023-03-12T05:33:17;2.73;;;1.83;;
19830;SDS011;10076;52.008;4.708;2023-03-12T05:35:42;8.50;;;2.60;;
19830;SDS011;10076;52.008;4.708;2023-03-12T05:38:07;3.90;;;2.40;;
19830;SDS011;10076;52.008;4.708;2023-03-12T05:40:33;3.87;;;1.97;;
19830;SDS011;10076;52.008;4.708;2023-03-12T05:42:58;3.57;;;2.50;;
19830;SDS011;10076;52.008;4.708;2023-03-12T05:45:23;2.80;;;2.17;;
19830;SDS011;10076;52.008;4.708;2023-03-12T05:47:48;5.03;;;2.23;;
19830;SDS011;10076;52.008;4.708;2023-03-12T05:50:14;4.03;;;2.60;;
19830;SDS011;10076;52.008;4.708;2023-03-12T05:52:40;3.80;;;3.27;;
19830;SDS011;10076;52.008;4.708;2023-03-12T05:55:06;3.30;;;2.40;;
19830;SDS011;10076;52.008;4.708;2023-03-12T05:57:32;2.43;;;2.23;;
19830;SDS011;10076;52.008;4.708;2023-03-12T05:59:57;4.77;;;2.73;;
19830;SDS011;10076;52.008;4.708;2023-03-12T06:02:22;5.27;;;2.53;;
19830;SDS011;10076;52.008;4.708;2023-03-12T06:04:48;3.60;;;2.27;;
19830;SDS011;10076;52.008;4.708;2023-03-12T06:07:13;4.13;;;2.67;;
19830;SDS011;10076;52.008;4.708;2023-03-12T06:09:38;2.50;;;2.30;;
19830;SDS011;10076;52.008;4.708;2023-03-12T06:12:04;3.47;;;2.50;;
19830;SDS011;10076;52.008;4.708;2023-03-12T06:14:29;4.90;;;2.30;;
19830;SDS011;10076;52.008;4.708;2023-03-12T06:16:55;3.27;;;2.63;;
19830;SDS011;10076;52.008;4.708;2023-03-12T06:19:20;5.17;;;3.03;;
19830;SDS011;10076;52.008;4.708;2023-03-12T06:21:45;5.37;;;3.00;;
19830;SDS011;10076;52.008;4.708;2023-03-12T06:24:11;4.33;;;2.77;;
19830;SDS011;10076;52.008;4.708;2023-03-12T06:26:36;4.90;;;2.90;;
19830;SDS011;10076;52.008;4.708;2023-03-12T06:29:01;4.40;;;2.80;;
19830;SDS011;10076;52.008;4.708;2023-03-12T06:31:27;6.07;;;3.03;;
19830;SDS011;10076;52.008;4.708;2023-03-12T06:33:52;5.37;;;2.60;;
19830;SDS011;10076;52.008;4.708;2023-03-12T06:36:18;6.30;;;3.20;;
19830;SDS011;10076;52.008;4.708;2023-03-12T06:38:44;7.33;;;3.10;;
19830;SDS011;10076;52.008;4.708;2023-03-12T06:41:13;5.70;;;2.77;;
19830;SDS011;10076;52.008;4.708;2023-03-12T06:43:40;3.03;;;2.57;;
19830;SDS011;10076;52.008;4.708;2023-03-12T06:46:08;5.93;;;3.33;;
19830;SDS011;10076;52.008;4.708;2023-03-12T06:48:36;3.80;;;2.63;;
19830;SDS011;10076;52.008;4.708;2023-03-12T06:51:05;5.97;;;3.33;;
19830;SDS011;10076;52.008;4.708;2023-03-12T06:53:34;6.13;;;2.40;;
19830;SDS011;10076;52.008;4.708;2023-03-12T06:56:00;5.47;;;3.03;;
19830;SDS011;10076;52.008;4.708;2023-03-12T06:58:28;6.20;;;3.67;;
19830;SDS011;10076;52.008;4.708;2023-03-12T07:00:54;3.77;;;2.80;;
19830;SDS011;10076;52.008;4.708;2023-03-12T07:03:19;6.43;;;2.87;;
19830;SDS011;10076;52.008;4.708;2023-03-12T07:05:46;4.27;;;3.07;;
19830;SDS011;10076;52.008;4.708;2023-03-12T07:08:12;5.27;;;3.03;;
19830;SDS011;10076;52.008;4.708;2023-03-12T07:10:38;5.43;;;3.37;;
19830;SDS011;10076;52.008;4.708;2023-03-12T07:13:04;4.97;;;3.70;;
19830;SDS011;10076;52.008;4.708;2023-03-12T07:15:30;8.67;;;3.40;;
19830;SDS011;10076;52.008;4.708;2023-03-12T07:17:58;4.70;;;2.83;;
19830;SDS011;10076;52.008;4.708;2023-03-12T07:20:24;5.27;;;3.47;;
19830;SDS011;10076;52.008;4.708;2023-03-12T07:22:50;5.87;;;3.90;;
19830;SDS011;10076;52.008;4.708;2023-03-12T07:25:15;5.93;;;3.47;;
19830;SDS011;10076;52.008;4.708;2023-03-12T07:27:40;6.53;;;4.23;;
19830;SDS011;10076;52.008;4.708;2023-03-12T07:30:06;9.43;;;4.30;;
19830;SDS011;10076;52.008;4.708;2023-03-12T07:32:32;4.53;;;3.43;;
19830;SDS011;10076;52.008;4.708;2023-03-12T07:34:57;6.83;;;3.67;;
19830;SDS011;10076;52.008;4.708;2023-03-12T07:37:23;7.47;;;4.10;;
19830;SDS011;10076;52.008;4.708;2023-03-12T07:39:48;7.37;;;3.90;;
19830;SDS011;10076;52.008;4.708;2023-03-12T07:42:16;7.10;;;3.53;;
19830;SDS011;10076;52.008;4.708;2023-03-12T07:44:41;6.43;;;4.67;;
19830;SDS011;10076;52.008;4.708;2023-03-12T07:47:07;9.33;;;4.30;;
19830;SDS011;10076;52.008;4.708;2023-03-12T07:49:32;6.63;;;4.27;;
19830;SDS011;10076;52.008;4.708;2023-03-12T07:51:57;9.93;;;3.97;;
19830;SDS011;10076;52.008;4.708;2023-03-12T07:54:23;8.40;;;4.00;;
19830;SDS011;10076;52.008;4.708;2023-03-12T07:56:54;5.87;;;3.80;;
19830;SDS011;10076;52.008;4.708;2023-03-12T07:59:19;7.47;;;4.10;;
19830;SDS011;10076;52.008;4.708;2023-03-12T08:01:46;10.73;;;3.67;;
19830;SDS011;10076;52.008;4.708;2023-03-12T08:04:11;11.10;;;4.33;;
19830;SDS011;10076;52.008;4.708;2023-03-12T08:06:37;6.67;;;4.20;;
19830;SDS011;10076;52.008;4.708;2023-03-12T08:09:06;6.70;;;3.70;;
19830;SDS011;10076;52.008;4.708;2023-03-12T08:11:32;5.83;;;4.23;;
19830;SDS011;10076;52.008;4.708;2023-03-12T08:13:58;8.33;;;4.10;;
19830;SDS011;10076;52.008;4.708;2023-03-12T08:16:24;8.80;;;3.87;;
19830;SDS011;10076;52.008;4.708;2023-03-12T08:18:49;10.20;;;4.00;;
19830;SDS011;10076;52.008;4.708;2023-03-12T08:21:14;7.40;;;3.77;;
19830;SDS011;10076;52.008;4.708;2023-03-12T08:23:40;8.80;;;4.33;;
19830;SDS011;10076;52.008;4.708;2023-03-12T08:26:06;9.57;;;4.83;;
19830;SDS011;10076;52.008;4.708;2023-03-12T08:28:32;7.50;;;4.37;;
19830;SDS011;10076;52.008;4.708;2023-03-12T08:30:57;9.83;;;4.50;;
19830;SDS011;10076;52.008;4.708;2023-03-12T08:33:24;8.47;;;4.83;;
19830;SDS011;10076;52.008;4.708;2023-03-12T08:35:50;9.37;;;4.97;;
19830;SDS011;10076;52.008;4.708;2023-03-12T08:38:15;9.87;;;5.40;;
19830;SDS011;10076;52.008;4.708;2023-03-12T08:40:41;10.50;;;5.53;;
19830;SDS011;10076;52.008;4.708;2023-03-12T08:43:06;9.80;;;5.03;;
19830;SDS011;10076;52.008;4.708;2023-03-12T08:45:32;13.67;;;5.87;;
19830;SDS011;10076;52.008;4.708;2023-03-12T08:48:00;14.20;;;6.20;;
19830;SDS011;10076;52.008;4.708;2023-03-12T08:50:29;16.90;;;7.77;;
19830;SDS011;10076;52.008;4.708;2023-03-12T08:52:56;11.80;;;6.37;;
19830;SDS011;10076;52.008;4.708;2023-03-12T08:55:22;14.83;;;5.77;;
19830;SDS011;10076;52.008;4.708;2023-03-12T08:57:47;17.50;;;6.97;;
19830;SDS011;10076;52.008;4.708;2023-03-12T09:00:13;10.53;;;5.77;;
19830;SDS011;10076;52.008;4.708;2023-03-12T09:02:41;17.47;;;8.10;;
19830;SDS011;10076;52.008;4.708;2023-03-12T09:05:08;17.57;;;7.30;;
19830;SDS011;10076;52.008;4.708;2023-03-12T09:07:33;23.23;;;8.10;;
19830;SDS011;10076;52.008;4.708;2023-03-12T09:09:58;15.87;;;7.97;;
19830;SDS011;10076;52.008;4.708;2023-03-12T09:12:24;17.67;;;6.37;;
19830;SDS011;10076;52.008;4.708;2023-03-12T09:14:49;15.73;;;8.17;;
19830;SDS011;10076;52.008;4.708;2023-03-12T09:17:16;16.77;;;7.63;;
19830;SDS011;10076;52.008;4.708;2023-03-12T09:19:41;16.73;;;7.90;;
19830;SDS011;10076;52.008;4.708;2023-03-12T09:22:07;20.50;;;8.13;;
19830;SDS011;10076;52.008;4.708;2023-03-12T09:24:32;19.30;;;6.93;;
19830;SDS011;10076;52.008;4.708;2023-03-12T09:26:58;17.73;;;7.43;;
19830;SDS011;10076;52.008;4.708;2023-03-12T09:29:23;16.90;;;7.00;;
19830;SDS011;10076;52.008;4.708;2023-03-12T09:31:49;15.37;;;6.63;;
19830;SDS011;10076;52.008;4.708;2023-03-12T09:34:15;16.43;;;6.67;;
19830;SDS011;10076;52.008;4.708;2023-03-12T09:36:40;12.93;;;6.23;;
19830;SDS011;10076;52.008;4.708;2023-03-12T09:39:06;12.80;;;5.93;;
19830;SDS011;10076;52.008;4.708;2023-03-12T09:41:33;11.43;;;5.47;;
19830;SDS011;10076;52.008;4.708;2023-03-12T09:44:24;13.13;;;6.10;;
19830;SDS011;10076;52.008;4.708;2023-03-12T09:47:14;16.63;;;5.87;;
19830;SDS011;10076;52.008;4.708;2023-03-12T09:49:58;13.93;;;6.33;;
19830;SDS011;10076;52.008;4.708;2023-03-12T09:52:28;13.37;;;5.80;;
19830;SDS011;10076;52.008;4.708;2023-03-12T09:55:06;9.83;;;4.57;;
19830;SDS011;10076;52.008;4.708;2023-03-12T09:57:39;16.13;;;5.40;;
19830;SDS011;10076;52.008;4.708;2023-03-12T10:00:29;10.17;;;4.47;;
19830;SDS011;10076;52.008;4.708;2023-03-12T10:05:30;14.93;;;5.20;;
19830;SDS011;10076;52.008;4.708;2023-03-12T10:10:48;10.93;;;2.97;;
19830;SDS011;10076;52.008;4.708;2023-03-12T10:13:46;16.90;;;4.43;;
19830;SDS011;10076;52.008;4.708;2023-03-12T10:16:42;15.40;;;3.60;;
19830;SDS011;10076;52.008;4.708;2023-03-12T10:25:26;8.33;;;3.10;;
19830;SDS011;10076;52.008;4.708;2023-03-12T10:28:11;12.87;;;3.40;;
19830;SDS011;10076;52.008;4.708;2023-03-12T10:30:42;6.67;;;3.30;;
19830;SDS011;10076;52.008;4.708;2023-03-12T10:33:15;10.20;;;3.13;;
19830;SDS011;10076;52.008;4.708;2023-03-12T10:35:42;14.50;;;3.17;;
19830;SDS011;10076;52.008;4.708;2023-03-12T10:38:12;16.40;;;4.33;;
19830;SDS011;10076;52.008;4.708;2023-03-12T10:40:41;7.90;;;2.67;;
19830;SDS011;10076;52.008;4.708;2023-03-12T10:43:06;12.70;;;2.70;;
19830;SDS011;10076;52.008;4.708;2023-03-12T10:48:20;12.53;;;2.63;;
19830;SDS011;10076;52.008;4.708;2023-03-12T10:53:31;11.80;;;2.47;;
19830;SDS011;10076;52.008;4.708;2023-03-12T10:55:59;8.77;;;2.87;;
19830;SDS011;10076;52.008;4.708;2023-03-12T10:58:31;9.23;;;3.37;;
19830;SDS011;10076;52.008;4.708;2023-03-12T11:01:20;16.53;;;3.27;;
19830;SDS011;10076;52.008;4.708;2023-03-12T11:03:46;5.70;;;2.37;;
19830;SDS011;10076;52.008;4.708;2023-03-12T11:06:25;5.73;;;2.10;;
19830;SDS011;10076;52.008;4.708;2023-03-12T11:09:05;7.97;;;2.70;;
19830;SDS011;10076;52.008;4.708;2023-03-12T11:11:34;16.87;;;3.27;;
19830;SDS011;10076;52.008;4.708;2023-03-12T11:14:04;19.33;;;3.83;;
19830;SDS011;10076;52.008;4.708;2023-03-12T11:16:32;12.90;;;2.93;;
19830;SDS011;10076;52.008;4.708;2023-03-12T11:19:02;8.07;;;1.93;;
19830;SDS011;10076;52.008;4.708;2023-03-12T11:21:29;10.27;;;3.40;;
19830;SDS011;10076;52.008;4.708;2023-03-12T11:26:24;6.53;;;1.90;;
19830;SDS011;10076;52.008;4.708;2023-03-12T11:28:58;8.07;;;2.93;;
19830;SDS011;10076;52.008;4.708;2023-03-12T11:31:30;12.67;;;2.33;;
19830;SDS011;10076;52.008;4.708;2023-03-12T11:34:05;3.90;;;2.07;;
19830;SDS011;10076;52.008;4.708;2023-03-12T11:36:44;11.33;;;2.37;;
19830;SDS011;10076;52.008;4.708;2023-03-12T11:50:34;8.13;;;2.60;;
19830;SDS011;10076;52.008;4.708;2023-03-12T11:53:20;13.00;;;2.23;;
19830;SDS011;10076;52.008;4.708;2023-03-12T12:01:44;11.17;;;2.90;;
19830;SDS011;10076;52.008;4.708;2023-03-12T12:07:11;9.00;;;1.80;;
19830;SDS011;10076;52.008;4.708;2023-03-12T12:23:08;9.23;;;2.43;;
19830;SDS011;10076;52.008;4.708;2023-03-12T12:33:52;8.33;;;2.63;;
19830;SDS011;10076;52.008;4.708;2023-03-12T12:36:32;13.90;;;3.17;;
19830;SDS011;10076;52.008;4.708;2023-03-12T12:39:46;6.47;;;2.13;;
19830;SDS011;10076;52.008;4.708;2023-03-12T12:41:57;15.07;;;2.83;;
19830;SDS011;10076;52.008;4.708;2023-03-12T12:44:33;10.23;;;2.30;;
19830;SDS011;10076;52.008;4.708;2023-03-12T12:47:05;7.30;;;1.97;;
19830;SDS011;10076;52.008;4.708;2023-03-12T12:52:37;12.57;;;2.80;;
19830;SDS011;10076;52.008;4.708;2023-03-12T12:57:40;13.03;;;2.50;;
19830;SDS011;10076;52.008;4.708;2023-03-12T13:02:47;12.10;;;1.93;;
19830;SDS011;10076;52.008;4.708;2023-03-12T13:08:04;13.33;;;2.33;;
19830;SDS011;10076;52.008;4.708;2023-03-12T13:12:58;13.57;;;2.50;;
19830;SDS011;10076;52.008;4.708;2023-03-12T13:20:19;9.37;;;2.00;;
19830;SDS011;10076;52.008;4.708;2023-03-12T13:28:31;10.53;;;2.37;;
19830;SDS011;10076;52.008;4.708;2023-03-12T13:31:02;11.70;;;1.87;;
19830;SDS011;10076;52.008;4.708;2023-03-12T13:33:48;10.70;;;2.33;;
19830;SDS011;10076;52.008;4.708;2023-03-12T13:38:54;8.60;;;1.80;;
19830;SDS011;10076;52.008;4.708;2023-03-12T13:41:30;14.30;;;2.40;;
19830;SDS011;10076;52.008;4.708;2023-03-12T13:50:03;12.20;;;1.93;;
19830;SDS011;10076;52.008;4.708;2023-03-12T13:52:31;15.23;;;3.03;;
19830;SDS011;10076;52.008;4.708;2023-03-12T13:57:49;11.35;;;2.50;;
19830;SDS011;10076;52.008;4.708;2023-03-12T14:02:54;10.43;;;2.22;;
19830;SDS011;10076;52.008;4.708;2023-03-12T14:05:21;8.00;;;1.98;;
19830;SDS011;10076;52.008;4.708;2023-03-12T14:10:38;11.65;;;2.78;;
19830;SDS011;10076;52.008;4.708;2023-03-12T14:18:58;12.13;;;2.40;;
19830;SDS011;10076;52.008;4.708;2023-03-12T14:21:25;9.70;;;2.75;;
19830;SDS011;10076;52.008;4.708;2023-03-12T14:23:56;14.30;;;2.93;;
19830;SDS011;10076;52.008;4.708;2023-03-12T14:26:27;14.30;;;2.43;;
19830;SDS011;10076;52.008;4.708;2023-03-12T14:29:12;19.13;;;2.90;;
19830;SDS011;10076;52.008;4.708;2023-03-12T14:31:46;19.70;;;3.00;;
19830;SDS011;10076;52.008;4.708;2023-03-12T14:34:16;12.20;;;3.00;;
19830;SDS011;10076;52.008;4.708;2023-03-12T14:41:53;11.17;;;3.03;;
19830;SDS011;10076;52.008;4.708;2023-03-12T14:44:29;14.50;;;2.33;;
19830;SDS011;10076;52.008;4.708;2023-03-12T14:47:01;18.27;;;3.73;;
19830;SDS011;10076;52.008;4.708;2023-03-12T14:49:29;12.10;;;2.27;;
19830;SDS011;10076;52.008;4.708;2023-03-12T14:51:55;11.90;;;1.90;;
19830;SDS011;10076;52.008;4.708;2023-03-12T14:54:25;14.23;;;3.00;;
19830;SDS011;10076;52.008;4.708;2023-03-12T14:56:52;16.57;;;3.43;;
19830;SDS011;10076;52.008;4.708;2023-03-12T15:04:41;14.07;;;2.73;;
19830;SDS011;10076;52.008;4.708;2023-03-12T15:07:08;10.43;;;3.83;;
19830;SDS011;10076;52.008;4.708;2023-03-12T15:09:36;12.43;;;2.40;;
19830;SDS011;10076;52.008;4.708;2023-03-12T15:12:05;17.50;;;3.30;;
19830;SDS011;10076;52.008;4.708;2023-03-12T15:14:33;11.23;;;2.57;;
19830;SDS011;10076;52.008;4.708;2023-03-12T15:17:03;13.53;;;2.13;;
19830;SDS011;10076;52.008;4.708;2023-03-12T15:19:31;11.03;;;2.43;;
19830;SDS011;10076;52.008;4.708;2023-03-12T15:21:59;10.60;;;2.20;;
19830;SDS011;10076;52.008;4.708;2023-03-12T15:24:25;11.43;;;3.37;;
19830;SDS011;10076;52.008;4.708;2023-03-12T15:26:52;12.13;;;2.37;;
19830;SDS011;10076;52.008;4.708;2023-03-12T15:29:27;23.20;;;2.37;;
19830;SDS011;10076;52.008;4.708;2023-03-12T15:31:57;11.37;;;2.50;;
19830;SDS011;10076;52.008;4.708;2023-03-12T15:34:28;12.60;;;2.40;;
19830;SDS011;10076;52.008;4.708;2023-03-12T15:37:02;15.53;;;3.20;;
19830;SDS011;10076;52.008;4.708;2023-03-12T15:39:43;15.73;;;3.13;;
19830;SDS011;10076;52.008;4.708;2023-03-12T15:42:17;8.70;;;2.70;;
19830;SDS011;10076;52.008;4.708;2023-03-12T15:44:47;13.53;;;1.70;;
19830;SDS011;10076;52.008;4.708;2023-03-12T15:47:16;15.10;;;2.60;;
19830;SDS011;10076;52.008;4.708;2023-03-12T15:49:47;17.93;;;2.83;;
19830;SDS011;10076;52.008;4.708;2023-03-12T15:54:58;15.80;;;2.33;;
19830;SDS011;10076;52.008;4.708;2023-03-12T15:57:29;15.00;;;2.93;;
19830;SDS011;10076;52.008;4.708;2023-03-12T16:02:36;6.20;;;1.47;;
19830;SDS011;10076;52.008;4.708;2023-03-12T16:05:03;12.57;;;2.60;;
19830;SDS011;10076;52.008;4.708;2023-03-12T16:07:29;9.50;;;2.10;;
19830;SDS011;10076;52.008;4.708;2023-03-12T16:09:54;18.27;;;2.90;;
19830;SDS011;10076;52.008;4.708;2023-03-12T16:12:20;7.50;;;1.77;;
19830;SDS011;10076;52.008;4.708;2023-03-12T16:14:45;11.80;;;2.10;;
19830;SDS011;10076;52.008;4.708;2023-03-12T16:17:13;7.70;;;1.93;;
19830;SDS011;10076;52.008;4.708;2023-03-12T16:19:41;12.50;;;2.47;;
19830;SDS011;10076;52.008;4.708;2023-03-12T16:22:07;19.57;;;2.13;;
19830;SDS011;10076;52.008;4.708;2023-03-12T16:24:32;18.60;;;2.73;;
19830;SDS011;10076;52.008;4.708;2023-03-12T16:26:58;18.03;;;3.77;;
19830;SDS011;10076;52.008;4.708;2023-03-12T16:29:34;11.20;;;2.80;;
19830;SDS011;10076;52.008;4.708;2023-03-12T16:32:13;15.93;;;2.63;;
19830;SDS011;10076;52.008;4.708;2023-03-12T16:34:40;12.57;;;2.73;;
19830;SDS011;10076;52.008;4.708;2023-03-12T16:37:12;12.70;;;3.13;;
19830;SDS011;10076;52.008;4.708;2023-03-12T16:39:37;11.47;;;2.87;;
19830;SDS011;10076;52.008;4.708;2023-03-12T16:42:03;17.27;;;3.23;;
19830;SDS011;10076;52.008;4.708;2023-03-12T16:44:41;11.90;;;2.50;;
19830;SDS011;10076;52.008;4.708;2023-03-12T16:47:09;8.33;;;2.40;;
19830;SDS011;10076;52.008;4.708;2023-03-12T16:49:36;9.03;;;2.00;;
19830;SDS011;10076;52.008;4.708;2023-03-12T16:52:11;10.93;;;1.70;;
19830;SDS011;10076;52.008;4.708;2023-03-12T16:54:48;7.37;;;1.80;;
19830;SDS011;10076;52.008;4.708;2023-03-12T16:57:36;8.67;;;2.83;;
19830;SDS011;10076;52.008;4.708;2023-03-12T17:00:05;9.87;;;2.10;;